Forside
METAR-TAF:

METAR-TAF

Lufthavne :

Nawabshah, Pakistan

Breddekreds: 26-15N, længdekreds: 068-22E, højde: 37 m

Aktuelle vejr

Denne rapport blev lavet for 30 minutter siden, kl. 08:00 UTC
Vind 8 kt fra nord
Temperatur 24°C
Fugtighed 44%
Tryk 1022 hPa
Sigt: 2500 m
røg, røg

METAR: OPNH 220800Z 36008KT 2500 FU NSC 24/11 Q1022 BECOMG3000 FU

Tid: 13:30 (08:30 UTC)

Vejrudsigter

Denne rapport blev lavet for 5 timer og 0 minutter siden, kl. 03:30 UTC
Foreløbig gælder fra 22 på 06 UTC til 23 på 12 UTC
Vind 5 kt fra nordnordvest med vindstød på up til 15 kt
Sigt: 5000 m
tåge/dis
ændring
fra 22 på 16 UTC til 22 på 18 UTC
Vind 7 kt fra nord
Sigt: 3000 m
røg
Midlertidig
fra 23 på 00 UTC til 23 på 04 UTC
Vind 5 kt fra nordnordvest
Sigt: 2000 m
røg

TAF: OPNH 220330Z 2206/2312 34005G15KT 5000 HZ NSC BECMG 2216/2218 36007KT 3000 FU NSC TEMPO 2300/2304 34005KT 2000 FU NSC

Vejrobservationer og prognoser fra mere end 4000 lufthavne (METAR og TAF).

De gule og røde prikker repræsenterer de meteorologiske stationer.

Flyt musen over at se navnet på stationen.

Så klik over at se vejr observationer og prognoser.

At skifte det kort: Klik på de grønne knapper med et sort kors for at zoome ind; på den grønne knap med en bindestreg for at zoome ud; eller på de grønne pile for tilstødende kort.


METAR-TAF: